createdAt,value
2016-05-08T00:01:02.760Z,26.9
2016-05-08T00:01:59.731Z,27
2016-05-08T00:03:02.671Z,27
2016-05-08T00:03:59.627Z,27.09
2016-05-08T00:05:02.599Z,27.37
2016-05-08T00:05:56.523Z,27.38
2016-05-08T00:06:59.479Z,27.17
2016-05-08T00:07:56.482Z,27.08
2016-05-08T00:08:56.593Z,27.17
2016-05-08T00:09:59.393Z,27.19
2016-05-08T00:10:56.490Z,26.98
2016-05-08T00:11:56.273Z,27.17
2016-05-08T00:12:59.229Z,27.27
2016-05-08T00:13:56.185Z,27.38
2016-05-08T00:14:59.125Z,27.17
2016-05-08T00:15:56.065Z,27.27
2016-05-08T00:16:56.037Z,27.47
2016-05-08T00:17:59.009Z,27.75
2016-05-08T00:18:58.980Z,27.56
2016-05-08T00:19:56.545Z,27.27
2016-05-08T00:20:55.860Z,27.27
2016-05-08T00:21:55.816Z,27.17
2016-05-08T00:22:55.789Z,27.56
2016-05-08T00:24:01.744Z,27.84
2016-05-08T00:24:55.910Z,27.66
2016-05-08T00:25:58.646Z,27.66
2016-05-08T00:26:55.602Z,27.56
2016-05-08T00:27:55.386Z,27.66
2016-05-08T00:28:58.515Z,27.94
2016-05-08T00:29:58.470Z,27.75
2016-05-08T00:30:58.426Z,27.84
2016-05-08T00:31:58.382Z,27.56
2016-05-08T00:32:55.321Z,27.56
2016-05-08T00:33:55.277Z,27.84
2016-05-08T00:34:55.233Z,27.75
2016-05-08T00:35:55.189Z,27.75
2016-05-08T00:36:58.145Z,27.75
2016-05-08T00:37:58.101Z,27.27
2016-05-08T00:38:58.056Z,27.75
2016-05-08T00:39:54.856Z,27.66
2016-05-08T00:40:54.796Z,27.17
2016-05-08T00:41:54.939Z,27.66
2016-05-08T00:42:55.458Z,27.17
2016-05-08T00:43:57.836Z,27.17
2016-05-08T00:44:54.994Z,27.75
2016-05-08T00:45:54.747Z,27.75
2016-05-08T00:46:54.906Z,27.56
2016-05-08T00:47:54.722Z,27.84
2016-05-08T00:48:54.458Z,27.66
2016-05-08T00:49:57.774Z,27.66
2016-05-08T00:50:54.557Z,27.47
2016-05-08T00:51:57.513Z,27.56
2016-05-08T00:53:00.656Z,27.56
2016-05-08T00:53:54.378Z,27.75
2016-05-08T00:54:57.849Z,27.75
2016-05-08T00:55:57.290Z,27.84
2016-05-08T00:56:54.089Z,27.75
2016-05-08T00:57:57.357Z,28.14
2016-05-08T00:58:57.172Z,27.84
2016-05-08T00:59:57.113Z,28.14
2016-05-08T01:00:54.085Z,28.14
2016-05-08T01:01:54.024Z,28.14
2016-05-08T01:02:53.980Z,28.23
2016-05-08T01:03:53.937Z,28.14
2016-05-08T01:04:53.970Z,27.84
2016-05-08T01:05:59.879Z,27.73
2016-05-08T01:06:53.804Z,27.93
2016-05-08T01:07:56.775Z,27.73
2016-05-08T01:08:54.839Z,27.75
2016-05-08T01:09:56.670Z,27.75
2016-05-08T01:10:56.689Z,27.75
2016-05-08T01:11:53.567Z,27.75
2016-05-08T01:12:56.461Z,27.73
2016-05-08T01:13:59.494Z,27.75
2016-05-08T01:14:53.638Z,27.73
2016-05-08T01:15:53.422Z,28.12
2016-05-08T01:16:56.362Z,27.73
2016-05-08T01:17:53.349Z,27.94
2016-05-08T01:18:53.274Z,27.73
2016-05-08T01:19:53.213Z,27.73
2016-05-08T01:20:53.169Z,27.93
2016-05-08T01:21:56.125Z,27.93
2016-05-08T01:23:02.113Z,27.75
2016-05-08T01:23:56.037Z,27.93
2016-05-08T01:24:53.009Z,28.03
2016-05-08T01:25:52.949Z,28.12
2016-05-08T01:26:52.905Z,28.22
2016-05-08T01:27:59.376Z,28.03
2016-05-08T01:28:52.817Z,28.03
2016-05-08T01:29:55.772Z,28.22
2016-05-08T01:30:55.932Z,28.22
2016-05-08T01:31:52.684Z,28.12
2016-05-08T01:32:55.484Z,28.12
2016-05-08T01:33:55.611Z,28.03
2016-05-08T01:34:55.552Z,28.22
2016-05-08T01:35:55.507Z,28.12
2016-05-08T01:36:55.869Z,28.31
2016-05-08T01:37:52.403Z,28.31
2016-05-08T01:38:55.375Z,28.12
2016-05-08T01:39:52.315Z,28.31
2016-05-08T01:40:52.287Z,28.22
2016-05-08T01:41:52.429Z,28.12
2016-05-08T01:42:55.604Z,28.12
2016-05-08T01:43:55.154Z,28.22
2016-05-08T01:44:51.954Z,28.22
2016-05-08T01:45:52.253Z,27.93
2016-05-08T01:46:52.006Z,28.03
2016-05-08T01:47:51.962Z,28.03
2016-05-08T01:48:51.901Z,28.03
2016-05-08T01:49:51.717Z,28.12
2016-05-08T01:51:00.845Z,28.03
2016-05-08T01:51:51.784Z,28.03
2016-05-08T01:52:54.756Z,28.12
2016-05-08T01:53:51.697Z,27.93
2016-05-08T01:54:54.653Z,28.5
2016-05-08T01:55:54.608Z,28.5
2016-05-08T01:56:57.845Z,28.5
2016-05-08T01:57:54.738Z,28.68
2016-05-08T01:58:51.522Z,28.78
2016-05-08T01:59:54.431Z,28.78
2016-05-08T02:00:54.388Z,28.88
2016-05-08T02:01:51.187Z,28.78
2016-05-08T02:02:51.283Z,28.97
2016-05-08T02:03:54.254Z,28.88
2016-05-08T02:04:51.023Z,28.78
2016-05-08T02:05:51.151Z,28.88
2016-05-08T02:06:51.107Z,29.06
2016-05-08T02:07:54.110Z,28.97
2016-05-08T02:08:51.018Z,29.16
2016-05-08T02:09:50.973Z,29.06
2016-05-08T02:10:51.133Z,29.16
2016-05-08T02:11:50.886Z,29.35
2016-05-08T02:12:50.841Z,29.35
2016-05-08T02:13:56.813Z,29.35
2016-05-08T02:14:53.753Z,29.45
2016-05-08T02:15:53.709Z,29.55
2016-05-08T02:16:50.664Z,29.45
2016-05-08T02:17:50.824Z,29.45
2016-05-08T02:18:53.623Z,29.45
2016-05-08T02:19:50.517Z,29.55
2016-05-08T02:20:50.472Z,29.35
2016-05-08T02:21:50.428Z,29.35
2016-05-08T02:22:53.431Z,29.35
2016-05-08T02:23:50.356Z,29.26
2016-05-08T02:24:59.530Z,29.26
2016-05-08T02:25:53.251Z,29.35
2016-05-08T02:26:50.207Z,29.26
2016-05-08T02:27:50.225Z,29.26
2016-05-08T02:28:53.134Z,29.35
2016-05-08T02:29:50.075Z,29.35
2016-05-08T02:30:50.030Z,29.45
2016-05-08T02:31:52.830Z,29.55
2016-05-08T02:32:50.145Z,29.35
2016-05-08T02:33:49.882Z,29.45
2016-05-08T02:34:52.869Z,29.45
2016-05-08T02:35:49.794Z,29.45
2016-05-08T02:36:49.765Z,29.35
2016-05-08T02:37:49.705Z,29.45
2016-05-08T02:38:52.677Z,29.35
2016-05-08T02:39:49.460Z,29.55
2016-05-08T02:40:52.776Z,29.45
2016-05-08T02:41:49.546Z,29.45
2016-05-08T02:42:49.595Z,29.45
2016-05-08T02:43:49.973Z,29.35
2016-05-08T02:44:49.602Z,29.45
2016-05-08T02:45:49.402Z,29.45
2016-05-08T02:46:49.542Z,29.35
2016-05-08T02:47:49.516Z,29.45
2016-05-08T02:48:49.332Z,29.35
2016-05-08T02:49:49.446Z,29.45
2016-05-08T02:50:49.434Z,29.45
2016-05-08T02:51:49.399Z,29.45
2016-05-08T02:52:49.362Z,29.55
2016-05-08T02:53:52.168Z,29.45
2016-05-08T02:54:49.270Z,29.35
2016-05-08T02:55:49.247Z,29.35
2016-05-08T02:56:49.223Z,29.26
2016-05-08T02:57:49.040Z,29.16
2016-05-08T02:58:49.170Z,29.26
2016-05-08T02:59:52.097Z,29.16
2016-05-08T03:00:49.227Z,29.26
2016-05-08T03:01:48.981Z,29.35
2016-05-08T03:02:54.968Z,29.35
2016-05-08T03:03:48.737Z,29.55
2016-05-08T03:04:51.866Z,29.35
2016-05-08T03:05:48.823Z,29.45
2016-05-08T03:06:48.764Z,29.45
2016-05-08T03:07:48.720Z,29.35
2016-05-08T03:08:51.676Z,29.55
2016-05-08T03:09:51.632Z,29.55
2016-05-08T03:10:51.604Z,29.55
2016-05-08T03:11:48.732Z,29.64
2016-05-08T03:12:51.829Z,29.55
2016-05-08T03:13:51.674Z,29.64
2016-05-08T03:14:51.396Z,29.55
2016-05-08T03:15:48.351Z,29.64
2016-05-08T03:16:51.308Z,29.64
2016-05-08T03:17:51.467Z,29.55
2016-05-08T03:18:48.063Z,29.55
2016-05-08T03:19:51.190Z,29.74
2016-05-08T03:20:48.132Z,29.83
2016-05-08T03:21:48.087Z,29.74
2016-05-08T03:22:48.043Z,29.64
2016-05-08T03:23:47.998Z,29.55
2016-05-08T03:24:53.814Z,29.64
2016-05-08T03:25:51.144Z,30.11
2016-05-08T03:26:50.867Z,29.93
2016-05-08T03:27:47.806Z,29.83
2016-05-08T03:28:50.778Z,29.82
2016-05-08T03:29:50.733Z,29.72
2016-05-08T03:30:50.534Z,29.93
2016-05-08T03:31:50.629Z,29.93
2016-05-08T03:32:50.601Z,29.91
2016-05-08T03:33:47.541Z,29.82
2016-05-08T03:34:50.496Z,29.91
2016-05-08T03:35:47.453Z,30.01
2016-05-08T03:36:47.596Z,30.11
2016-05-08T03:37:47.364Z,30.01
2016-05-08T03:38:47.304Z,29.91
2016-05-08T03:39:50.276Z,30.01
2016-05-08T03:40:47.200Z,29.82
2016-05-08T03:41:47.171Z,29.82
2016-05-08T03:42:47.425Z,29.91
2016-05-08T03:43:47.083Z,29.91
2016-05-08T03:44:50.040Z,30.3
2016-05-08T03:45:49.995Z,30.11
2016-05-08T03:46:46.935Z,30.2
2016-05-08T03:47:47.204Z,30.2
2016-05-08T03:48:52.894Z,30.2
2016-05-08T03:49:52.818Z,30.11
2016-05-08T03:50:46.962Z,30.2
2016-05-08T03:51:46.761Z,30.11
2016-05-08T03:52:46.670Z,30.01
2016-05-08T03:53:46.626Z,30.2
2016-05-08T03:54:49.785Z,30.2
2016-05-08T03:55:49.553Z,30.2
2016-05-08T03:56:49.493Z,30.2
2016-05-08T03:57:47.403Z,30.3
2016-05-08T03:58:46.389Z,30.11
2016-05-08T03:59:46.361Z,30.11
2016-05-08T04:00:49.301Z,30.11
2016-05-08T04:01:46.117Z,30.3
2016-05-08T04:02:49.228Z,30.2
2016-05-08T04:03:46.012Z,30.01
2016-05-08T04:04:46.327Z,30.01
2016-05-08T04:05:46.080Z,30.01
2016-05-08T04:06:46.083Z,30.11
2016-05-08T04:07:46.008Z,30.2
2016-05-08T04:08:45.947Z,30.11
2016-05-08T04:09:48.903Z,30.49
2016-05-08T04:10:48.860Z,30.4
2016-05-08T04:11:45.800Z,30.49
2016-05-08T04:12:46.286Z,30.4
2016-05-08T04:13:48.727Z,30.3
2016-05-08T04:14:51.698Z,30.49
2016-05-08T04:15:45.607Z,30.4
2016-05-08T04:16:48.501Z,30.3
2016-05-08T04:17:45.535Z,30.4
2016-05-08T04:18:48.490Z,30.2
2016-05-08T04:19:48.446Z,30.3
2016-05-08T04:20:45.402Z,30.4
2016-05-08T04:21:45.343Z,30.4
2016-05-08T04:22:48.517Z,30.3
2016-05-08T04:23:45.269Z,30.3
2016-05-08T04:24:45.209Z,30.3
2016-05-08T04:25:45.181Z,30.4
2016-05-08T04:26:45.121Z,30.3
2016-05-08T04:27:45.093Z,30.49
2016-05-08T04:28:45.033Z,30.4
2016-05-08T04:29:45.191Z,30.4
2016-05-08T04:30:44.959Z,30.4
2016-05-08T04:31:44.745Z,30.49
2016-05-08T04:32:44.840Z,30.49
2016-05-08T04:33:47.811Z,30.2
2016-05-08T04:34:44.783Z,30.4
2016-05-08T04:35:47.722Z,30.49
2016-05-08T04:36:47.664Z,30.4
2016-05-08T04:37:47.635Z,30.58
2016-05-08T04:38:50.575Z,30.11
2016-05-08T04:39:47.530Z,30.4
2016-05-08T04:40:53.706Z,30.4
2016-05-08T04:41:47.427Z,30.3
2016-05-08T04:42:47.398Z,30.3
2016-05-08T04:43:44.354Z,30.11
2016-05-08T04:44:47.311Z,30.3
2016-05-08T04:45:47.265Z,30.2
2016-05-08T04:46:44.394Z,30.11
2016-05-08T04:47:44.146Z,30.02
2016-05-08T04:48:46.961Z,30.11
2016-05-08T04:49:44.057Z,30.11
2016-05-08T04:50:44.030Z,30.4
2016-05-08T04:51:43.985Z,30.3
2016-05-08T04:52:43.910Z,30.2
2016-05-08T04:53:43.881Z,30.11
2016-05-08T04:54:47.040Z,30.01
2016-05-08T04:55:46.792Z,30.11
2016-05-08T04:56:46.765Z,30.3
2016-05-08T04:57:43.720Z,30.12
2016-05-08T04:58:43.863Z,30.12
2016-05-08T04:59:46.616Z,30.22
2016-05-08T05:00:43.775Z,30.22
2016-05-08T05:01:46.528Z,29.83
2016-05-08T05:02:43.484Z,29.93
2016-05-08T05:03:43.423Z,30.02
2016-05-08T05:04:46.380Z,29.83
2016-05-08T05:05:43.741Z,29.83
2016-05-08T05:06:43.291Z,29.83
2016-05-08T05:07:43.247Z,29.93
2016-05-08T05:08:43.594Z,29.74
2016-05-08T05:09:43.158Z,29.83
2016-05-08T05:10:42.942Z,30.12
2016-05-08T05:11:46.289Z,29.64
2016-05-08T05:12:43.010Z,29.64
2016-05-08T05:13:42.966Z,29.64
2016-05-08T05:14:42.922Z,29.93
2016-05-08T05:15:42.877Z,29.55
2016-05-08T05:16:42.677Z,29.45
2016-05-08T05:17:42.790Z,29.55
2016-05-08T05:18:45.745Z,29.45
2016-05-08T05:19:45.716Z,29.83
2016-05-08T05:20:42.657Z,29.64
2016-05-08T05:21:45.597Z,29.55
2016-05-08T05:22:42.771Z,29.55
2016-05-08T05:23:45.524Z,29.55
2016-05-08T05:24:42.324Z,29.74
2016-05-08T05:25:42.421Z,29.45
2016-05-08T05:26:42.392Z,29.64
2016-05-08T05:27:42.363Z,29.45
2016-05-08T05:28:42.287Z,29.45
2016-05-08T05:29:45.243Z,29.16
2016-05-08T05:30:42.606Z,29.26
2016-05-08T05:31:42.359Z,29.16
2016-05-08T05:32:42.095Z,29.26
2016-05-08T05:33:42.254Z,29.37
2016-05-08T05:34:42.054Z,29.37
2016-05-08T05:35:41.979Z,29.35
2016-05-08T05:36:41.934Z,29.45
2016-05-08T05:37:41.874Z,29.45
2016-05-08T05:38:41.830Z,29.47
2016-05-08T05:39:41.786Z,29.17
2016-05-08T05:40:41.742Z,28.99
2016-05-08T05:41:44.698Z,29.17
2016-05-08T05:42:41.653Z,29.08
2016-05-08T05:43:41.437Z,29.17
2016-05-08T05:44:44.424Z,28.99
2016-05-08T05:45:41.506Z,28.99
2016-05-08T05:46:41.477Z,28.99
2016-05-08T05:47:44.339Z,28.99
2016-05-08T05:48:41.357Z,29.08
2016-05-08T05:49:41.344Z,29.08
2016-05-08T05:50:41.284Z,28.99
2016-05-08T05:51:44.241Z,28.89
2016-05-08T05:52:41.196Z,28.79
2016-05-08T05:53:44.152Z,28.89
2016-05-08T05:54:41.092Z,28.81
2016-05-08T05:55:41.063Z,28.79
2016-05-08T05:56:40.862Z,28.91
2016-05-08T05:57:41.287Z,28.91
2016-05-08T05:58:40.931Z,28.81
2016-05-08T05:59:40.871Z,28.81
2016-05-08T06:00:40.686Z,28.81
2016-05-08T06:01:40.798Z,28.52
2016-05-08T06:02:40.739Z,28.71
2016-05-08T06:03:40.695Z,28.52
2016-05-08T06:04:40.854Z,28.52
2016-05-08T06:05:40.622Z,28.52
2016-05-08T06:06:40.561Z,28.04
2016-05-08T06:07:40.514Z,27.94
2016-05-08T06:08:40.470Z,28.04
2016-05-08T06:09:43.741Z,28.14
2016-05-08T06:10:40.382Z,28.15
2016-05-08T06:11:40.339Z,28.04
2016-05-08T06:12:46.703Z,28.23
2016-05-08T06:13:43.112Z,27.94
2016-05-08T06:14:40.191Z,28.15
2016-05-08T06:15:40.364Z,27.86
2016-05-08T06:16:43.119Z,27.76
2016-05-08T06:17:40.057Z,27.58
2016-05-08T06:18:43.032Z,27.76
2016-05-08T06:19:40.172Z,27.19
2016-05-08T06:20:42.771Z,27.38
2016-05-08T06:21:39.959Z,27.28
2016-05-08T06:22:39.821Z,27.48
2016-05-08T06:23:43.107Z,27.48
2016-05-08T06:24:39.592Z,27.19
2016-05-08T06:25:39.704Z,27.28
2016-05-08T06:26:39.643Z,27.19
2016-05-08T06:27:39.616Z,27.28
2016-05-08T06:28:39.571Z,27.3
2016-05-08T06:29:39.527Z,27.11
2016-05-08T06:30:39.483Z,27.2
2016-05-08T06:31:39.423Z,27.3
2016-05-08T06:32:39.395Z,26.92
2016-05-08T06:33:51.228Z,26.82
2016-05-08T06:34:40.009Z,26.92
2016-05-08T06:35:42.265Z,26.62
2016-05-08T06:36:42.220Z,26.62
2016-05-08T06:37:39.361Z,26.72
2016-05-08T06:38:39.114Z,26.43
2016-05-08T06:39:39.069Z,26.34
2016-05-08T06:40:39.025Z,26.24
2016-05-08T06:41:38.981Z,26.24
2016-05-08T06:42:39.156Z,26.24
2016-05-08T06:43:38.894Z,26.15
2016-05-08T06:44:38.864Z,26.06
2016-05-08T06:45:38.805Z,26.16
2016-05-08T06:46:38.761Z,25.96
2016-05-08T06:47:38.716Z,25.87
2016-05-08T06:48:38.672Z,25.87
2016-05-08T06:49:41.646Z,25.87
2016-05-08T06:50:38.568Z,25.58
2016-05-08T06:51:47.543Z,25.58
2016-05-08T06:52:47.514Z,25.48
2016-05-08T06:53:41.452Z,24.91
2016-05-08T06:54:38.407Z,25.2
2016-05-08T06:55:38.363Z,25.21
2016-05-08T06:56:41.318Z,25.02
2016-05-08T06:57:38.462Z,24.92
2016-05-08T06:58:38.245Z,25.02
2016-05-08T06:59:41.186Z,25.21
2016-05-08T07:00:44.160Z,24.63
2016-05-08T07:01:41.098Z,24.63
2016-05-08T07:02:37.882Z,24.82
2016-05-08T07:03:41.025Z,24.82
2016-05-08T07:04:37.965Z,24.44
2016-05-08T07:05:40.921Z,24.63
2016-05-08T07:06:43.895Z,23.86
2016-05-08T07:07:37.848Z,23.97
2016-05-08T07:08:37.991Z,24.16
2016-05-08T07:09:40.775Z,24.16
2016-05-08T07:10:40.716Z,24.07
2016-05-08T07:11:37.655Z,23.78
2016-05-08T07:12:37.705Z,23.68
2016-05-08T07:13:37.411Z,23.68
2016-05-08T07:14:37.539Z,23.68
2016-05-08T07:15:37.480Z,23.58
2016-05-08T07:16:40.450Z,23.39
2016-05-08T07:17:37.391Z,23
2016-05-08T07:18:40.190Z,23.02
2016-05-08T07:19:37.302Z,23.11
2016-05-08T07:20:43.291Z,22.83
2016-05-08T07:21:43.217Z,23.11
2016-05-08T07:22:40.170Z,22.53
2016-05-08T07:23:40.126Z,22.63
2016-05-08T07:24:39.925Z,22.53
2016-05-08T07:25:37.038Z,22.44
2016-05-08T07:26:36.993Z,22.44
2016-05-08T07:27:37.168Z,22.44
2016-05-08T07:28:36.921Z,22.34
2016-05-08T07:29:36.860Z,22.34
2016-05-08T07:30:37.003Z,22.34
2016-05-08T07:31:36.773Z,22.44
2016-05-08T07:32:36.743Z,22.44
2016-05-08T07:33:36.528Z,22.16
2016-05-08T07:34:36.640Z,21.97
2016-05-08T07:35:36.611Z,21.88
2016-05-08T07:36:39.567Z,21.78
2016-05-08T07:37:39.367Z,21.88
2016-05-08T07:38:39.682Z,21.88
2016-05-08T07:39:39.434Z,21.97
2016-05-08T07:40:39.374Z,21.88
2016-05-08T07:41:36.378Z,21.58
2016-05-08T07:42:36.317Z,21.68
2016-05-08T07:43:36.242Z,21.78
2016-05-08T07:44:39.213Z,21.58
2016-05-08T07:45:36.169Z,21.48
2016-05-08T07:46:36.141Z,21.58
2016-05-08T07:47:42.112Z,21.48
2016-05-08T07:48:39.052Z,21.48
2016-05-08T07:49:35.976Z,21.58
2016-05-08T07:50:38.963Z,21.58
2016-05-08T07:51:35.904Z,21.58
2016-05-08T07:52:35.907Z,21.58
2016-05-08T07:53:35.800Z,21.79
2016-05-08T07:54:38.787Z,21.5
2016-05-08T07:55:38.571Z,21.59
2016-05-08T07:56:38.699Z,21.4
2016-05-08T07:57:35.638Z,21.31
2016-05-08T07:58:38.610Z,21.31
2016-05-08T07:59:38.566Z,21.4
2016-05-08T08:00:35.725Z,21.11
2016-05-08T08:01:41.493Z,21.01
2016-05-08T08:02:35.418Z,21.11
2016-05-08T08:03:38.389Z,21.21
2016-05-08T08:04:38.189Z,21.11
2016-05-08T08:05:38.145Z,21.01
2016-05-08T08:06:35.460Z,20.83
2016-05-08T08:07:35.212Z,20.74
2016-05-08T08:08:38.184Z,20.83
2016-05-08T08:09:35.125Z,20.93
2016-05-08T08:10:35.095Z,21.03
2016-05-08T08:11:35.051Z,20.74
2016-05-08T08:12:36.133Z,20.74
2016-05-08T08:13:37.947Z,21.03
2016-05-08T08:14:34.919Z,20.93
2016-05-08T08:15:34.859Z,20.54
2016-05-08T08:16:34.815Z,20.64
2016-05-08T08:17:34.630Z,20.65
2016-05-08T08:18:34.570Z,20.93
2016-05-08T08:19:34.714Z,20.74
2016-05-08T08:20:37.669Z,20.74
2016-05-08T08:21:37.610Z,20.84
2016-05-08T08:22:37.613Z,20.65
2016-05-08T08:23:34.412Z,20.65
2016-05-08T08:24:34.477Z,20.56
2016-05-08T08:25:34.433Z,20.45
2016-05-08T08:26:37.388Z,20.56
2016-05-08T08:27:34.360Z,20.65
2016-05-08T08:28:34.176Z,20.56
2016-05-08T08:29:34.100Z,20.26
2016-05-08T08:30:34.227Z,20.26
2016-05-08T08:31:34.230Z,20.26
2016-05-08T08:32:37.155Z,20.17
2016-05-08T08:33:37.095Z,20.36
2016-05-08T08:34:34.082Z,20.17
2016-05-08T08:35:33.990Z,20.26
2016-05-08T08:36:34.165Z,20.36
2016-05-08T08:37:33.934Z,20.26
2016-05-08T08:38:33.890Z,20.26
2016-05-08T08:39:36.705Z,20.26
2016-05-08T08:40:36.645Z,20.18
2016-05-08T08:41:33.742Z,20.17
2016-05-08T08:42:33.714Z,20.26
2016-05-08T08:43:36.669Z,20.26
2016-05-08T08:44:39.655Z,20.07
2016-05-08T08:45:33.580Z,19.88
2016-05-08T08:46:33.427Z,19.98
2016-05-08T08:47:33.805Z,20.26
2016-05-08T08:48:36.525Z,19.88
2016-05-08T08:49:33.419Z,19.98
2016-05-08T08:50:33.578Z,20.07
2016-05-08T08:51:36.331Z,19.88
2016-05-08T08:52:36.286Z,19.98
2016-05-08T08:53:33.446Z,20.07
2016-05-08T08:54:33.213Z,19.88
2016-05-08T08:55:33.357Z,20.07
2016-05-08T08:56:33.126Z,19.89
2016-05-08T08:57:36.065Z,20.17
2016-05-08T08:58:33.085Z,19.98
2016-05-08T08:59:32.821Z,19.98
2016-05-08T09:00:32.949Z,19.79
2016-05-08T09:01:32.780Z,19.89
2016-05-08T09:02:32.860Z,20.18
2016-05-08T09:03:32.707Z,19.7
2016-05-08T09:04:35.787Z,19.7
2016-05-08T09:05:35.806Z,19.4
2016-05-08T09:06:32.699Z,19.12
2016-05-08T09:07:38.889Z,19.12
2016-05-08T09:08:41.643Z,19.31
2016-05-08T09:09:33.098Z,19.5
2016-05-08T09:10:35.709Z,19.5
2016-05-08T09:11:32.479Z,19.21
2016-05-08T09:12:35.497Z,19.12
2016-05-08T09:13:41.422Z,19.12
2016-05-08T09:14:32.361Z,19.02
2016-05-08T09:15:38.536Z,18.64
2016-05-08T09:16:35.305Z,18.64
2016-05-08T09:17:32.072Z,18.35
2016-05-08T09:18:35.185Z,18.35
2016-05-08T09:19:31.968Z,18.45
2016-05-08T09:20:31.941Z,17.97
2016-05-08T09:21:32.069Z,18.06
2016-05-08T09:22:35.024Z,18.16
2016-05-08T09:23:35.183Z,18.06
2016-05-08T09:24:37.951Z,17.97
2016-05-08T09:25:34.891Z,17.87
2016-05-08T09:26:34.878Z,17.77
2016-05-08T09:27:31.834Z,18.06
2016-05-08T09:28:34.805Z,17.29
2016-05-08T09:29:37.933Z,17.19
2016-05-08T09:30:34.749Z,17.39
2016-05-08T09:31:40.641Z,17.39
2016-05-08T09:32:32.098Z,17.48
2016-05-08T09:33:34.428Z,17.29
2016-05-08T09:34:34.900Z,17.29
2016-05-08T09:35:34.465Z,17.48
2016-05-08T09:36:31.420Z,17.48
2016-05-08T09:37:34.595Z,17.88
2016-05-08T09:38:34.207Z,17.88
2016-05-08T09:39:31.132Z,17.49
2016-05-08T09:40:34.244Z,17.59
2016-05-08T09:41:34.043Z,17.4
2016-05-08T09:42:31.562Z,17.3
2016-05-08T09:43:31.127Z,17.4
2016-05-08T09:44:31.083Z,17.01
2016-05-08T09:45:31.069Z,17.3
2016-05-08T09:46:33.994Z,17.1
2016-05-08T09:47:36.982Z,17.2
2016-05-08T09:48:30.906Z,17.21
2016-05-08T09:49:30.909Z,17.4
2016-05-08T09:50:36.849Z,17.31
2016-05-08T09:51:33.789Z,17.02
2016-05-08T09:52:30.745Z,16.92
2016-05-08T09:53:33.716Z,16.82
2016-05-08T09:54:34.125Z,16.64
2016-05-08T09:55:30.455Z,16.44
2016-05-08T09:56:33.428Z,16.35
2016-05-08T09:57:33.790Z,16.16
2016-05-08T09:58:33.511Z,15.67
2016-05-08T09:59:33.342Z,15.77
2016-05-08T10:00:33.423Z,15.96
2016-05-08T10:01:33.363Z,15.86
2016-05-08T10:02:30.334Z,15.58
2016-05-08T10:03:30.274Z,15.48
2016-05-08T10:04:33.465Z,15.58
2016-05-08T10:05:30.405Z,15.28
2016-05-08T10:06:30.235Z,14.99
2016-05-08T10:07:30.317Z,14.89
2016-05-08T10:08:36.304Z,14.99
2016-05-08T10:09:36.056Z,15.09
2016-05-08T10:10:33.012Z,14.98
2016-05-08T10:11:32.952Z,14.99
2016-05-08T10:12:29.767Z,14.99
2016-05-08T10:13:32.927Z,14.31
2016-05-08T10:14:29.835Z,14.6
2016-05-08T10:15:32.807Z,14.6
2016-05-08T10:16:29.747Z,14.02
2016-05-08T10:17:29.687Z,14.22
2016-05-08T10:18:29.690Z,14.12
2016-05-08T10:19:29.630Z,13.54
2016-05-08T10:20:32.445Z,13.83
2016-05-08T10:21:29.542Z,13.34
2016-05-08T10:22:29.341Z,13.25
2016-05-08T10:23:32.464Z,13.06
2016-05-08T10:24:29.436Z,13.25
2016-05-08T10:25:29.376Z,12.67
2016-05-08T10:26:29.347Z,12.87
2016-05-08T10:27:29.288Z,13.05
2016-05-08T10:28:29.477Z,13.15
2016-05-08T10:29:32.261Z,13.15
2016-05-08T10:30:29.155Z,13.15
2016-05-08T10:31:28.970Z,12.96
2016-05-08T10:32:32.801Z,13.06
2016-05-08T10:33:29.538Z,13.25
2016-05-08T10:34:34.369Z,12.77
2016-05-08T10:35:28.965Z,12.77
2016-05-08T10:36:37.921Z,12.77
2016-05-08T10:37:28.892Z,12.57
2016-05-08T10:38:28.832Z,12.38
2016-05-08T10:39:31.788Z,12.57
2016-05-08T10:40:28.759Z,12.57
2016-05-08T10:41:31.715Z,12.29
2016-05-08T10:42:28.671Z,12.38
2016-05-08T10:43:28.627Z,12.48
2016-05-08T10:44:31.598Z,12.48
2016-05-08T10:45:31.742Z,12.57
2016-05-08T10:46:28.510Z,12.48
2016-05-08T10:47:28.451Z,12.38
2016-05-08T10:48:28.422Z,12.48
2016-05-08T10:49:28.378Z,12.19
2016-05-08T10:50:37.365Z,11.99
2016-05-08T10:51:31.290Z,11.8
2016-05-08T10:52:34.276Z,11.52
2016-05-08T10:53:28.217Z,11.32
2016-05-08T10:54:28.188Z,11.52
2016-05-08T10:55:28.113Z,11.61
2016-05-08T10:56:34.084Z,11.42
2016-05-08T10:57:31.447Z,11.22
2016-05-08T10:58:31.246Z,11.22
2016-05-08T10:59:30.967Z,11.22
2016-05-08T11:00:30.923Z,10.74
2016-05-08T11:01:30.738Z,11.12
2016-05-08T11:02:27.835Z,10.54
2016-05-08T11:03:30.790Z,10.74
2016-05-08T11:04:27.762Z,10.74
2016-05-08T11:05:27.701Z,10.84
2016-05-08T11:06:30.673Z,10.64
2016-05-08T11:07:33.474Z,10.74
2016-05-08T11:08:30.819Z,10.84
2016-05-08T11:09:27.540Z,11.03
2016-05-08T11:10:27.512Z,10.84
2016-05-08T11:11:30.468Z,11.03
2016-05-08T11:12:30.424Z,11.22
2016-05-08T11:13:27.395Z,11.13
2016-05-08T11:14:27.335Z,11.13
2016-05-08T11:15:27.292Z,11.13
2016-05-08T11:16:27.263Z,11.32
2016-05-08T11:17:27.141Z,11.23
2016-05-08T11:18:27.175Z,11.23
2016-05-08T11:19:30.131Z,11.22
2016-05-08T11:20:30.101Z,11.23
2016-05-08T11:21:30.073Z,11.22
2016-05-08T11:22:27.419Z,11.04
2016-05-08T11:23:30.172Z,11.03
2016-05-08T11:24:26.909Z,10.94
2016-05-08T11:25:26.881Z,10.85
2016-05-08T11:26:26.852Z,11.04
2016-05-08T11:27:29.808Z,10.85
2016-05-08T11:28:27.155Z,10.26
2016-05-08T11:29:26.938Z,10.07
2016-05-08T11:30:26.691Z,9.48
2016-05-08T11:31:26.630Z,8.81
2016-05-08T11:32:29.588Z,9.2
2016-05-08T11:33:32.544Z,8.91
2016-05-08T11:34:29.546Z,9
2016-05-08T11:35:26.299Z,8.91
2016-05-08T11:36:29.457Z,9.01
2016-05-08T11:37:26.382Z,8.62
2016-05-08T11:38:26.354Z,8.81
2016-05-08T11:39:26.309Z,9.01
2016-05-08T11:40:26.312Z,9.01
2016-05-08T11:41:26.252Z,8.72
2016-05-08T11:42:29.223Z,7.94
2016-05-08T11:43:26.148Z,7.94
2016-05-08T11:44:29.198Z,7.94
2016-05-08T11:45:29.059Z,8.04
2016-05-08T11:46:29.015Z,7.94
2016-05-08T11:47:25.986Z,8.04
2016-05-08T11:48:25.959Z,8.04
2016-05-08T11:49:28.989Z,8.23
2016-05-08T11:50:28.986Z,7.94
2016-05-08T11:51:25.968Z,7.94
2016-05-08T11:52:29.184Z,7.94
2016-05-08T11:53:25.974Z,7.95
2016-05-08T11:54:28.945Z,8.24
2016-05-08T11:55:25.743Z,8.24
2016-05-08T11:56:25.730Z,8.24
2016-05-08T11:57:26.044Z,8.04
2016-05-08T11:58:26.524Z,8.24
2016-05-08T11:59:25.985Z,8.43
2016-05-08T12:00:28.743Z,8.24
2016-05-08T12:01:28.704Z,8.04
2016-05-08T12:02:25.681Z,8.24
2016-05-08T12:03:25.640Z,8.24
2016-05-08T12:04:25.597Z,8.24
2016-05-08T12:05:31.774Z,8.33
2016-05-08T12:06:34.543Z,8.43
2016-05-08T12:07:25.892Z,8.53
2016-05-08T12:08:28.645Z,8.33
2016-05-08T12:09:28.399Z,8.43
2016-05-08T12:10:28.575Z,8.24
2016-05-08T12:11:28.312Z,8.24
2016-05-08T12:12:28.316Z,8.33
2016-05-08T12:13:25.100Z,7.95
2016-05-08T12:14:28.211Z,7.86
2016-05-08T12:15:28.168Z,7.66
2016-05-08T12:16:28.170Z,7.66
2016-05-08T12:17:28.079Z,7.56
2016-05-08T12:18:28.066Z,7.66
2016-05-08T12:19:24.992Z,7.86
2016-05-08T12:20:24.995Z,7.57
2016-05-08T12:21:25.122Z,7.76
2016-05-08T12:22:24.922Z,7.86
2016-05-08T12:23:24.830Z,7.57
2016-05-08T12:24:24.895Z,7.76
2016-05-08T12:25:24.600Z,7.66
2016-05-08T12:26:24.713Z,7.56
2016-05-08T12:27:24.669Z,7.66
2016-05-08T12:28:24.844Z,7.46
2016-05-08T12:29:24.596Z,7.27
2016-05-08T12:30:24.568Z,7.37
2016-05-08T12:31:24.508Z,7.17
2016-05-08T12:32:27.479Z,7.08
2016-05-08T12:33:27.451Z,7.08
2016-05-08T12:34:24.390Z,7.37
2016-05-08T12:35:27.566Z,7.37
2016-05-08T12:36:27.522Z,7.28
2016-05-08T12:37:24.258Z,7.37
2016-05-08T12:38:24.058Z,7.28
2016-05-08T12:39:30.201Z,6.7
2016-05-08T12:40:27.157Z,6.79
2016-05-08T12:41:27.301Z,6.99
2016-05-08T12:42:27.084Z,6.6
2016-05-08T12:43:27.024Z,6.7
2016-05-08T12:44:26.981Z,6.99
2016-05-08T12:45:24.045Z,6.7
2016-05-08T12:46:23.892Z,7.09
2016-05-08T12:47:23.707Z,6.79
2016-05-08T12:48:23.834Z,6.7
2016-05-08T12:49:23.790Z,6.7
2016-05-08T12:50:23.746Z,6.99
2016-05-08T12:51:23.905Z,6.89
2016-05-08T12:52:26.674Z,6.99
2016-05-08T12:53:29.645Z,6.79
2016-05-08T12:54:26.586Z,6.99
2016-05-08T12:55:29.556Z,6.7
2016-05-08T12:56:23.513Z,6.51
2016-05-08T12:57:26.311Z,6.41
2016-05-08T12:58:32.408Z,6.31